Malo, Washington
Current Conditions -  °F | °C
As of 10:08 PM on Thursday 18 Dec 2014 (Local Time) from KOMK Reporting Station
Light Rain Light Rain  
Wind Chill: 34°   Ceiling: 500
Heat Index: 34°   Visibility: 5mi
Dew Point: 33°   Wind: 0mph
Humidity: 96%   Direction: NA
Pressure: 29.93"   Gusts: NA
Location:  48.8°N, 118.61°W
Report Text: KOMK 190608Z AUTO 00000KT 5SM -RA BR OVC005 01/01 A2993 RMK AO2 P0001 T00110006
Loading
Personal Weather Stations






























Interactive Weather Map New forecast layout! Learn more

10-Day Weather Forecast

Advertisements
Track Severe Weather on mobile